Search for airport 
image banner adimage banner adimage banner ad
image banner ad

6PS2 - Stouffers

Located in King Of Prussia, United States

ICAO - 6PS2, IATA -

Data provided by Airmate  

General information

Coordinates: N40°5'21" W75°24'29"
Elevation is 220 feet MSL.
Magnetic variation is -11° East
View others Airports in Pennsylvania

Operational data

Special qualification required
Current time UTC:
Current local time:
Weather at : KLOM - Wings Field ( 13 km )
METAR: KLOM 190015Z AUTO 22006KT 10SM CLR 23/09 A3026 RMK AO2 T02280093
View NOTAMs / SUP AIP / TFR affecting this airport [VIEW]
Communications frequencies: [VIEW]

Runways:

Airport contact information

Address: King Of Prussia United States

Satellite view of 6PS2